createdAt,value
2018-11-04T00:00:18.126Z,1017.25
2018-11-04T00:01:18.102Z,1017.22
2018-11-04T00:02:18.099Z,1017.24
2018-11-04T00:03:18.081Z,1017.24
2018-11-04T00:04:18.070Z,1017.20
2018-11-04T00:05:18.071Z,1017.20
2018-11-04T00:06:18.050Z,1017.17
2018-11-04T00:07:18.038Z,1017.19
2018-11-04T00:08:18.027Z,1017.19
2018-11-04T00:09:18.017Z,1017.13
2018-11-04T00:10:18.020Z,1017.15
2018-11-04T00:11:17.995Z,1017.13
2018-11-04T00:12:17.987Z,1017.11
2018-11-04T00:13:18.124Z,1017.14
2018-11-04T00:14:17.964Z,1017.09
2018-11-04T00:15:17.966Z,1017.09
2018-11-04T00:16:17.943Z,1017.05
2018-11-04T00:17:17.935Z,1016.99
2018-11-04T00:18:17.926Z,1017.06
2018-11-04T00:19:17.912Z,1017.02
2018-11-04T00:20:17.941Z,1017.01
2018-11-04T00:21:17.902Z,1016.97
2018-11-04T00:22:17.878Z,1016.98
2018-11-04T00:23:17.867Z,1016.99
2018-11-04T00:24:17.857Z,1017.01
2018-11-04T00:25:17.856Z,1016.98
2018-11-04T00:26:17.834Z,1016.95
2018-11-04T00:27:17.873Z,1016.94
2018-11-04T00:28:17.813Z,1016.93
2018-11-04T00:29:17.803Z,1016.94
2018-11-04T00:30:17.806Z,1016.88
2018-11-04T00:31:17.796Z,1016.92
2018-11-04T00:32:17.775Z,1016.86
2018-11-04T00:33:17.760Z,1016.88
2018-11-04T00:34:17.749Z,1016.89
2018-11-04T00:35:17.750Z,1016.86
2018-11-04T00:36:17.730Z,1016.84
2018-11-04T00:37:17.717Z,1016.84
2018-11-04T00:38:17.706Z,1016.82
2018-11-04T00:39:17.696Z,1016.85
2018-11-04T00:40:17.697Z,1016.86
2018-11-04T00:41:17.686Z,1016.79
2018-11-04T00:42:17.664Z,1016.80
2018-11-04T00:43:17.653Z,1016.80
2018-11-04T00:44:17.643Z,1016.81
2018-11-04T00:45:17.717Z,1016.77
2018-11-04T00:46:17.633Z,1016.76
2018-11-04T00:47:17.616Z,1016.74
2018-11-04T00:48:17.601Z,1016.74
2018-11-04T00:49:17.589Z,1016.69
2018-11-04T00:50:17.578Z,1016.71
2018-11-04T00:51:17.589Z,1016.73
2018-11-04T00:52:17.571Z,1016.69
2018-11-04T00:53:17.552Z,1016.73
2018-11-04T00:54:17.534Z,1016.72
2018-11-04T00:55:17.524Z,1016.74
2018-11-04T00:56:17.516Z,1016.75
2018-11-04T00:57:17.525Z,1016.75
2018-11-04T00:58:17.491Z,1016.73
2018-11-04T00:59:17.482Z,1016.68
2018-11-04T01:00:17.493Z,1016.68
2018-11-04T01:01:17.459Z,1016.64
2018-11-04T01:02:17.449Z,1016.72
2018-11-04T01:03:17.454Z,1016.72
2018-11-04T01:04:17.431Z,1016.74
2018-11-04T01:05:17.421Z,1016.74
2018-11-04T01:06:17.409Z,1016.69
2018-11-04T01:07:17.409Z,1016.70
2018-11-04T01:08:17.398Z,1016.68
2018-11-04T01:09:17.475Z,1016.66
2018-11-04T01:10:17.364Z,1016.61
2018-11-04T01:11:17.356Z,1016.60
2018-11-04T01:12:17.579Z,1016.63
2018-11-04T01:13:17.352Z,1016.57
2018-11-04T01:14:17.323Z,1016.52
2018-11-04T01:15:17.310Z,1016.52
2018-11-04T01:16:17.302Z,1016.48
2018-11-04T01:17:17.292Z,1016.43
2018-11-04T01:18:17.291Z,1016.45
2018-11-04T01:19:17.270Z,1016.45
2018-11-04T01:20:17.259Z,1016.43
2018-11-04T01:21:17.247Z,1016.43
2018-11-04T01:22:17.238Z,1016.41
2018-11-04T01:23:17.238Z,1016.40
2018-11-04T01:24:17.279Z,1016.36
2018-11-04T01:25:17.211Z,1016.34
2018-11-04T01:26:17.196Z,1016.38
2018-11-04T01:27:17.182Z,1016.39
2018-11-04T01:28:17.199Z,1016.37
2018-11-04T01:29:17.201Z,1016.35
2018-11-04T01:30:17.175Z,1016.33
2018-11-04T01:31:17.145Z,1016.34
2018-11-04T01:32:17.130Z,1016.34
2018-11-04T01:33:17.128Z,1016.32
2018-11-04T01:34:17.122Z,1016.29
2018-11-04T01:35:17.113Z,1016.29
2018-11-04T01:36:17.090Z,1016.24
2018-11-04T01:37:17.078Z,1016.25
2018-11-04T01:38:17.068Z,1016.23
2018-11-04T01:39:17.068Z,1016.20
2018-11-04T01:40:17.061Z,1016.21
2018-11-04T01:41:17.037Z,1016.16
2018-11-04T01:42:17.024Z,1016.15
2018-11-04T01:43:17.016Z,1016.15
2018-11-04T01:44:17.017Z,1016.12
2018-11-04T01:45:16.992Z,1016.09
2018-11-04T01:46:16.982Z,1016.09
2018-11-04T01:47:16.974Z,1016.04
2018-11-04T01:48:16.962Z,1016.06
2018-11-04T01:49:16.966Z,1016.06
2018-11-04T01:50:16.951Z,1016.05
2018-11-04T01:51:16.930Z,1015.99
2018-11-04T01:52:16.917Z,1016.03
2018-11-04T01:53:16.908Z,1016.06
2018-11-04T01:54:17.072Z,1016.03
2018-11-04T01:55:16.885Z,1016.01
2018-11-04T01:56:16.874Z,1015.98
2018-11-04T01:57:16.864Z,1016.00
2018-11-04T01:58:16.854Z,1015.97
2018-11-04T01:59:16.855Z,1015.95
2018-11-04T02:00:16.834Z,1015.92
2018-11-04T02:01:16.824Z,1015.92
2018-11-04T02:02:16.810Z,1015.89
2018-11-04T02:03:16.805Z,1015.89
2018-11-04T02:04:16.804Z,1015.83
2018-11-04T02:05:16.795Z,1015.86
2018-11-04T02:06:16.772Z,1015.82
2018-11-04T02:07:16.760Z,1015.78
2018-11-04T02:08:16.746Z,1015.76
2018-11-04T02:09:16.738Z,1015.73
2018-11-04T02:10:17.064Z,1015.72
2018-11-04T02:11:16.716Z,1015.71
2018-11-04T02:12:16.708Z,1015.73
2018-11-04T02:13:16.698Z,1015.72
2018-11-04T02:14:16.682Z,1015.72
2018-11-04T02:15:16.686Z,1015.72
2018-11-04T02:16:16.673Z,1015.64
2018-11-04T02:17:16.650Z,1015.67
2018-11-04T02:18:16.639Z,1015.62
2018-11-04T02:19:16.628Z,1015.62
2018-11-04T02:20:16.630Z,1015.61
2018-11-04T02:21:16.606Z,1015.61
2018-11-04T02:22:16.601Z,1015.59
2018-11-04T02:23:16.586Z,1015.57
2018-11-04T02:24:16.575Z,1015.57
2018-11-04T02:25:16.592Z,1015.58
2018-11-04T02:26:16.554Z,1015.53
2018-11-04T02:27:16.546Z,1015.57
2018-11-04T02:28:16.534Z,1015.54
2018-11-04T02:29:16.523Z,1015.57
2018-11-04T02:30:16.513Z,1015.56
2018-11-04T02:31:16.514Z,1015.51
2018-11-04T02:32:16.489Z,1015.50
2018-11-04T02:33:16.481Z,1015.43
2018-11-04T02:34:16.470Z,1015.48
2018-11-04T02:35:16.459Z,1015.41
2018-11-04T02:36:16.573Z,1015.39
2018-11-04T02:37:16.436Z,1015.41
2018-11-04T02:38:16.428Z,1015.42
2018-11-04T02:39:16.415Z,1015.35
2018-11-04T02:40:16.404Z,1015.34
2018-11-04T02:41:16.395Z,1015.33
2018-11-04T02:42:16.400Z,1015.32
2018-11-04T02:43:16.375Z,1015.33
2018-11-04T02:44:16.362Z,1015.30
2018-11-04T02:45:16.351Z,1015.34
2018-11-04T02:46:16.341Z,1015.34
2018-11-04T02:47:16.352Z,1015.30
2018-11-04T02:48:16.321Z,1015.32
2018-11-04T02:49:16.309Z,1015.33
2018-11-04T02:50:16.323Z,1015.29
2018-11-04T02:51:16.289Z,1015.27
2018-11-04T02:52:16.297Z,1015.20
2018-11-04T02:53:16.264Z,1015.24
2018-11-04T02:54:16.253Z,1015.26
2018-11-04T02:55:16.244Z,1015.25
2018-11-04T02:56:16.232Z,1015.25
2018-11-04T02:57:16.222Z,1015.21
2018-11-04T02:58:16.222Z,1015.22
2018-11-04T02:59:16.202Z,1015.20
2018-11-04T03:00:16.191Z,1015.20
2018-11-04T03:01:16.182Z,1015.21
2018-11-04T03:02:16.169Z,1015.18
2018-11-04T03:03:16.561Z,1015.17
2018-11-04T03:04:16.147Z,1015.15
2018-11-04T03:05:16.137Z,1015.14
2018-11-04T03:06:16.128Z,1015.09
2018-11-04T03:07:16.116Z,1015.13
2018-11-04T03:08:16.115Z,1015.18
2018-11-04T03:09:16.096Z,1015.15
2018-11-04T03:10:16.179Z,1015.16
2018-11-04T03:11:16.072Z,1015.13
2018-11-04T03:12:16.062Z,1015.16
2018-11-04T03:13:16.068Z,1015.15
2018-11-04T03:14:16.040Z,1015.16
2018-11-04T03:15:16.030Z,1015.12
2018-11-04T03:16:16.019Z,1015.13
2018-11-04T03:17:16.008Z,1015.08
2018-11-04T03:18:15.999Z,1015.12
2018-11-04T03:19:16.000Z,1015.08
2018-11-04T03:20:15.986Z,1015.07
2018-11-04T03:21:15.966Z,1015.08
2018-11-04T03:22:15.955Z,1015.05
2018-11-04T03:23:15.955Z,1015.04
2018-11-04T03:24:15.949Z,1015.02
2018-11-04T03:25:15.923Z,1015.02
2018-11-04T03:26:15.919Z,1015.00
2018-11-04T03:27:15.901Z,1014.98
2018-11-04T03:28:15.894Z,1015.01
2018-11-04T03:29:15.891Z,1014.96
2018-11-04T03:30:15.871Z,1014.96
2018-11-04T03:31:15.859Z,1014.95
2018-11-04T03:32:15.852Z,1014.94
2018-11-04T03:33:15.836Z,1014.94
2018-11-04T03:34:15.839Z,1014.94
2018-11-04T03:35:15.816Z,1014.92
2018-11-04T03:36:15.805Z,1014.94
2018-11-04T03:37:15.796Z,1014.90
2018-11-04T03:38:15.785Z,1014.93
2018-11-04T03:39:15.784Z,1014.91
2018-11-04T03:40:15.773Z,1014.93
2018-11-04T03:41:15.756Z,1014.89
2018-11-04T03:42:15.741Z,1014.88
2018-11-04T03:43:15.729Z,1014.87
2018-11-04T03:44:15.733Z,1014.85
2018-11-04T03:45:15.721Z,1014.90
2018-11-04T03:46:15.698Z,1014.91
2018-11-04T03:47:15.688Z,1014.92
2018-11-04T03:48:15.677Z,1014.93
2018-11-04T03:49:15.691Z,1014.94
2018-11-04T03:50:15.656Z,1014.97
2018-11-04T03:51:15.645Z,1014.93
2018-11-04T03:52:15.634Z,1014.97
2018-11-04T03:53:15.623Z,1014.96
2018-11-04T03:54:15.611Z,1014.94
2018-11-04T03:55:15.614Z,1014.96
2018-11-04T03:56:15.590Z,1014.97
2018-11-04T03:57:15.580Z,1014.96
2018-11-04T03:58:15.569Z,1014.98
2018-11-04T03:59:15.559Z,1014.98
2018-11-04T04:00:15.571Z,1014.92
2018-11-04T04:01:15.541Z,1014.95
2018-11-04T04:02:15.527Z,1014.90
2018-11-04T04:03:15.518Z,1014.94
2018-11-04T04:04:15.505Z,1014.90
2018-11-04T04:05:15.495Z,1014.88
2018-11-04T04:06:15.496Z,1014.86
2018-11-04T04:07:15.473Z,1014.87
2018-11-04T04:08:15.466Z,1014.85
2018-11-04T04:09:15.452Z,1014.85
2018-11-04T04:10:15.443Z,1014.81
2018-11-04T04:11:15.444Z,1014.83
2018-11-04T04:12:15.420Z,1014.81
2018-11-04T04:13:15.419Z,1014.83
2018-11-04T04:14:15.397Z,1014.84
2018-11-04T04:15:15.388Z,1014.84
2018-11-04T04:16:15.390Z,1014.83
2018-11-04T04:17:15.368Z,1014.88
2018-11-04T04:18:15.356Z,1014.85
2018-11-04T04:19:15.345Z,1014.84
2018-11-04T04:20:15.334Z,1014.84
2018-11-04T04:21:15.337Z,1014.88
2018-11-04T04:22:15.317Z,1014.82
2018-11-04T04:23:15.301Z,1014.83
2018-11-04T04:24:15.292Z,1014.83
2018-11-04T04:25:15.285Z,1014.84
2018-11-04T04:26:15.281Z,1014.86
2018-11-04T04:27:15.260Z,1014.83
2018-11-04T04:28:15.249Z,1014.84
2018-11-04T04:29:15.238Z,1014.83
2018-11-04T04:30:15.228Z,1014.85
2018-11-04T04:31:15.229Z,1014.82
2018-11-04T04:32:15.208Z,1014.83
2018-11-04T04:33:15.195Z,1014.79
2018-11-04T04:34:15.184Z,1014.82
2018-11-04T04:35:15.173Z,1014.81
2018-11-04T04:36:15.173Z,1014.81
2018-11-04T04:37:15.164Z,1014.79
2018-11-04T04:38:15.140Z,1014.79
2018-11-04T04:39:15.130Z,1014.75
2018-11-04T04:40:15.120Z,1014.76
2018-11-04T04:41:15.109Z,1014.74
2018-11-04T04:42:15.111Z,1014.73
2018-11-04T04:43:15.087Z,1014.66
2018-11-04T04:44:15.076Z,1014.69
2018-11-04T04:45:15.068Z,1014.64
2018-11-04T04:46:15.055Z,1014.68
2018-11-04T04:47:15.058Z,1014.64
2018-11-04T04:48:15.036Z,1014.65
2018-11-04T04:49:15.024Z,1014.60
2018-11-04T04:50:15.013Z,1014.58
2018-11-04T04:51:15.002Z,1014.57
2018-11-04T04:52:15.002Z,1014.56
2018-11-04T04:53:15.010Z,1014.60
2018-11-04T04:54:14.970Z,1014.62
2018-11-04T04:55:14.957Z,1014.60
2018-11-04T04:56:14.949Z,1014.61
2018-11-04T04:57:14.961Z,1014.57
2018-11-04T04:58:14.927Z,1014.55
2018-11-04T04:59:14.919Z,1014.56
2018-11-04T05:00:14.950Z,1014.57
2018-11-04T05:01:14.898Z,1014.56
2018-11-04T05:02:14.887Z,1014.54
2018-11-04T05:03:14.885Z,1014.57
2018-11-04T05:04:14.861Z,1014.55
2018-11-04T05:05:14.853Z,1014.55
2018-11-04T05:06:14.843Z,1014.51
2018-11-04T05:07:14.831Z,1014.50
2018-11-04T05:08:14.834Z,1014.47
2018-11-04T05:09:14.808Z,1014.50
2018-11-04T05:10:14.799Z,1014.49
2018-11-04T05:11:14.789Z,1014.51
2018-11-04T05:12:14.778Z,1014.43
2018-11-04T05:13:14.777Z,1014.47
2018-11-04T05:14:14.759Z,1014.41
2018-11-04T05:15:14.745Z,1014.44
2018-11-04T05:16:14.738Z,1014.41
2018-11-04T05:17:14.724Z,1014.41
2018-11-04T05:18:14.725Z,1014.38
2018-11-04T05:19:14.712Z,1014.38
2018-11-04T05:20:14.693Z,1014.37
2018-11-04T05:21:14.680Z,1014.35
2018-11-04T05:22:14.672Z,1014.36
2018-11-04T05:23:14.658Z,1014.33
2018-11-04T05:24:14.660Z,1014.33
2018-11-04T05:25:14.637Z,1014.30
2018-11-04T05:26:14.629Z,1014.28
2018-11-04T05:27:14.617Z,1014.28
2018-11-04T05:28:14.607Z,1014.24
2018-11-04T05:29:15.048Z,1014.23
2018-11-04T05:30:14.585Z,1014.26
2018-11-04T05:31:14.575Z,1014.29
2018-11-04T05:32:14.562Z,1014.27
2018-11-04T05:33:14.553Z,1014.34
2018-11-04T05:34:14.552Z,1014.30
2018-11-04T05:35:14.530Z,1014.31
2018-11-04T05:36:14.523Z,1014.30
2018-11-04T05:37:14.509Z,1014.24
2018-11-04T05:38:14.503Z,1014.29
2018-11-04T05:39:14.546Z,1014.22
2018-11-04T05:40:14.476Z,1014.22
2018-11-04T05:41:14.470Z,1014.23
2018-11-04T05:42:14.454Z,1014.29
2018-11-04T05:43:14.444Z,1014.23
2018-11-04T05:44:14.445Z,1014.22
2018-11-04T05:45:14.435Z,1014.27
2018-11-04T05:46:14.414Z,1014.27
2018-11-04T05:47:14.401Z,1014.21
2018-11-04T05:48:14.391Z,1014.21
2018-11-04T05:49:14.408Z,1014.17
2018-11-04T05:50:14.369Z,1014.15
2018-11-04T05:51:14.367Z,1014.11
2018-11-04T05:52:14.348Z,1014.15
2018-11-04T05:53:14.342Z,1014.09
2018-11-04T05:54:14.327Z,1014.14
2018-11-04T05:55:14.341Z,1014.10
2018-11-04T05:56:14.305Z,1014.10
2018-11-04T05:57:14.300Z,1014.15
2018-11-04T05:58:14.283Z,1014.17
2018-11-04T05:59:14.275Z,1014.19
2018-11-04T06:00:14.263Z,1014.18
2018-11-04T06:01:14.264Z,1014.22
2018-11-04T06:02:14.240Z,1014.20
2018-11-04T06:03:14.233Z,1014.16
2018-11-04T06:04:14.230Z,1014.15
2018-11-04T06:05:14.210Z,1014.16
2018-11-04T06:06:14.198Z,1014.16
2018-11-04T06:07:14.186Z,1014.18
2018-11-04T06:08:14.176Z,1014.17
2018-11-04T06:09:14.176Z,1014.15
2018-11-04T06:10:14.155Z,1014.10
2018-11-04T06:11:14.157Z,1014.11
2018-11-04T06:12:14.149Z,1014.11
2018-11-04T06:13:14.132Z,1014.10
2018-11-04T06:14:14.113Z,1014.10
2018-11-04T06:15:14.122Z,1014.12
2018-11-04T06:16:14.091Z,1014.08
2018-11-04T06:17:14.104Z,1014.09
2018-11-04T06:18:14.075Z,1014.09
2018-11-04T06:19:14.071Z,1014.09
2018-11-04T06:20:14.051Z,1014.11
2018-11-04T06:21:14.050Z,1014.07
2018-11-04T06:22:14.028Z,1014.11
2018-11-04T06:23:14.018Z,1014.11
2018-11-04T06:24:14.010Z,1014.12
2018-11-04T06:25:13.995Z,1014.11
2018-11-04T06:26:13.999Z,1014.10
2018-11-04T06:27:13.978Z,1014.10
2018-11-04T06:28:13.965Z,1014.13
2018-11-04T06:29:13.959Z,1014.11
2018-11-04T06:30:13.942Z,1014.16
2018-11-04T06:31:13.958Z,1014.11
2018-11-04T06:32:13.920Z,1014.08
2018-11-04T06:33:13.910Z,1014.12
2018-11-04T06:34:13.900Z,1014.04
2018-11-04T06:35:13.887Z,1014.12
2018-11-04T06:36:14.045Z,1014.11
2018-11-04T06:37:13.880Z,1014.12
2018-11-04T06:38:13.861Z,1014.12
2018-11-04T06:39:13.846Z,1014.16
2018-11-04T06:40:13.834Z,1014.13
2018-11-04T06:41:14.024Z,1014.12
2018-11-04T06:42:13.819Z,1014.16
2018-11-04T06:43:13.815Z,1014.18
2018-11-04T06:44:13.793Z,1014.19
2018-11-04T06:45:13.781Z,1014.25
2018-11-04T06:46:13.771Z,1014.22
2018-11-04T06:47:13.876Z,1014.19
2018-11-04T06:48:13.780Z,1014.20
2018-11-04T06:49:13.740Z,1014.24
2018-11-04T06:50:13.737Z,1014.24
2018-11-04T06:51:13.717Z,1014.25
2018-11-04T06:52:13.706Z,1014.23
2018-11-04T06:53:13.697Z,1014.22
2018-11-04T06:54:13.705Z,1014.18
2018-11-04T06:55:13.677Z,1014.13
2018-11-04T06:56:13.664Z,1014.10
2018-11-04T06:57:13.654Z,1014.11
2018-11-04T06:58:13.672Z,1014.08
2018-11-04T06:59:13.632Z,1014.08
2018-11-04T07:00:13.621Z,1014.09
2018-11-04T07:01:13.612Z,1014.09
2018-11-04T07:02:13.600Z,1014.12
2018-11-04T07:03:13.591Z,1014.09
2018-11-04T07:04:13.591Z,1014.15
2018-11-04T07:05:13.568Z,1014.13
2018-11-04T07:06:13.558Z,1014.12
2018-11-04T07:07:13.547Z,1014.15
2018-11-04T07:08:13.546Z,1014.18
2018-11-04T07:09:13.543Z,1014.15
2018-11-04T07:10:13.519Z,1014.14
2018-11-04T07:11:13.505Z,1014.15
2018-11-04T07:12:13.493Z,1014.16
2018-11-04T07:13:13.486Z,1014.14
2018-11-04T07:14:13.492Z,1014.11
2018-11-04T07:15:13.476Z,1014.16
2018-11-04T07:16:13.452Z,1014.14
2018-11-04T07:17:13.441Z,1014.14
2018-11-04T07:18:13.432Z,1014.12
2018-11-04T07:19:13.419Z,1014.10
2018-11-04T07:20:13.420Z,1014.07
2018-11-04T07:21:13.400Z,1014.09
2018-11-04T07:22:13.387Z,1014.08
2018-11-04T07:23:13.377Z,1014.09
2018-11-04T07:24:13.367Z,1014.14
2018-11-04T07:25:13.368Z,1014.09
2018-11-04T07:26:13.346Z,1014.14
2018-11-04T07:27:13.333Z,1014.09
2018-11-04T07:28:13.324Z,1014.14
2018-11-04T07:29:13.325Z,1014.11
2018-11-04T07:30:13.313Z,1014.14
2018-11-04T07:31:13.293Z,1014.12
2018-11-04T07:32:13.394Z,1014.11
2018-11-04T07:33:13.272Z,1014.11
2018-11-04T07:34:13.261Z,1014.09
2018-11-04T07:35:13.261Z,1014.14
2018-11-04T07:36:13.239Z,1014.09
2018-11-04T07:37:13.235Z,1014.08
2018-11-04T07:38:13.219Z,1014.07
2018-11-04T07:39:13.210Z,1014.07
2018-11-04T07:40:13.538Z,1014.06
2018-11-04T07:41:13.186Z,1014.01
2018-11-04T07:42:13.176Z,1014.00
2018-11-04T07:43:13.167Z,1014.02
2018-11-04T07:44:13.232Z,1014.01
2018-11-04T07:45:13.163Z,1013.98
2018-11-04T07:46:13.132Z,1014.00
2018-11-04T07:47:13.123Z,1013.97
2018-11-04T07:48:13.112Z,1013.95
2018-11-04T07:49:13.101Z,1013.98
2018-11-04T07:50:13.094Z,1013.96
2018-11-04T07:51:13.092Z,1013.91
2018-11-04T07:52:13.068Z,1013.91
2018-11-04T07:53:13.061Z,1013.90
2018-11-04T07:54:13.046Z,1013.89
2018-11-04T07:55:13.036Z,1013.85
2018-11-04T07:56:13.038Z,1013.87
2018-11-04T07:57:13.017Z,1013.85
2018-11-04T07:58:13.003Z,1013.83
2018-11-04T07:59:12.995Z,1013.84
2018-11-04T08:00:13.155Z,1013.83
2018-11-04T08:01:12.995Z,1013.78
2018-11-04T08:02:12.960Z,1013.78
2018-11-04T08:03:12.952Z,1013.80
2018-11-04T08:04:13.028Z,1013.80
2018-11-04T08:05:12.929Z,1013.77
2018-11-04T08:06:12.917Z,1013.75
2018-11-04T08:07:12.920Z,1013.78
2018-11-04T08:08:12.897Z,1013.76
2018-11-04T08:09:12.889Z,1013.73
2018-11-04T08:10:12.877Z,1013.70
2018-11-04T08:11:12.865Z,1013.73
2018-11-04T08:12:12.869Z,1013.67
2018-11-04T08:13:12.842Z,1013.72
2018-11-04T08:14:12.838Z,1013.72
2018-11-04T08:15:12.825Z,1013.73
2018-11-04T08:16:12.825Z,1013.69
2018-11-04T08:17:12.814Z,1013.71
2018-11-04T08:18:12.791Z,1013.68
2018-11-04T08:19:12.779Z,1013.68
2018-11-04T08:20:12.769Z,1013.65
2018-11-04T08:21:12.821Z,1013.68
2018-11-04T08:22:12.758Z,1013.66
2018-11-04T08:23:12.739Z,1013.68
2018-11-04T08:24:12.727Z,1013.67
2018-11-04T08:25:12.715Z,1013.63
2018-11-04T08:26:12.705Z,1013.65
2018-11-04T08:27:12.718Z,1013.60
2018-11-04T08:28:12.685Z,1013.59
2018-11-04T08:29:12.673Z,1013.56
2018-11-04T08:30:12.664Z,1013.57
2018-11-04T08:31:12.652Z,1013.54
2018-11-04T08:32:12.662Z,1013.56
2018-11-04T08:33:12.633Z,1013.58
2018-11-04T08:34:12.619Z,1013.59
2018-11-04T08:35:12.606Z,1013.58
2018-11-04T08:36:12.599Z,1013.55
2018-11-04T08:37:12.592Z,1013.58
2018-11-04T08:38:12.588Z,1013.53
2018-11-04T08:39:12.565Z,1013.57
2018-11-04T08:40:12.647Z,1013.54
2018-11-04T08:41:12.545Z,1013.60
2018-11-04T08:42:12.535Z,1013.60
2018-11-04T08:43:12.536Z,1013.57
2018-11-04T08:44:12.513Z,1013.51
2018-11-04T08:45:12.504Z,1013.53
2018-11-04T08:46:12.490Z,1013.52
2018-11-04T08:47:12.479Z,1013.52
2018-11-04T08:48:12.482Z,1013.52
2018-11-04T08:49:12.461Z,1013.48
2018-11-04T08:50:12.448Z,1013.52
2018-11-04T08:51:12.437Z,1013.48
2018-11-04T08:52:12.427Z,1013.51
2018-11-04T08:53:12.429Z,1013.52
2018-11-04T08:54:12.405Z,1013.46
2018-11-04T08:55:12.394Z,1013.49
2018-11-04T08:56:12.384Z,1013.49
2018-11-04T08:57:12.373Z,1013.54
2018-11-04T08:58:12.374Z,1013.55
2018-11-04T08:59:12.533Z,1013.54
2018-11-04T09:00:12.450Z,1013.58
2018-11-04T09:01:12.332Z,1013.60
2018-11-04T09:02:12.322Z,1013.58
2018-11-04T09:03:12.309Z,1013.60
2018-11-04T09:04:12.308Z,1013.61
2018-11-04T09:05:12.290Z,1013.56
2018-11-04T09:06:12.274Z,1013.56
2018-11-04T09:07:12.264Z,1013.55
2018-11-04T09:08:12.259Z,1013.54
2018-11-04T09:09:12.264Z,1013.52
2018-11-04T09:10:12.234Z,1013.52
2018-11-04T09:11:12.221Z,1013.53
2018-11-04T09:12:12.212Z,1013.48
2018-11-04T09:13:12.205Z,1013.50
2018-11-04T09:14:12.259Z,1013.45
2018-11-04T09:15:12.179Z,1013.50
2018-11-04T09:16:12.170Z,1013.45
2018-11-04T09:17:12.161Z,1013.44
2018-11-04T09:18:12.153Z,1013.40
2018-11-04T09:19:12.148Z,1013.40
2018-11-04T09:20:12.125Z,1013.41
2018-11-04T09:21:12.128Z,1013.42
2018-11-04T09:22:12.190Z,1013.38
2018-11-04T09:23:12.093Z,1013.37
2018-11-04T09:24:12.102Z,1013.33
2018-11-04T09:25:12.072Z,1013.35
2018-11-04T09:26:12.065Z,1013.38
2018-11-04T09:27:12.051Z,1013.30
2018-11-04T09:28:12.038Z,1013.25
2018-11-04T09:29:12.122Z,1013.24
2018-11-04T09:30:12.018Z,1013.24
2018-11-04T09:31:12.007Z,1013.18
2018-11-04T09:32:11.997Z,1013.20
2018-11-04T09:33:11.988Z,1013.22
2018-11-04T09:34:11.977Z,1013.22
2018-11-04T09:35:12.067Z,1013.24
2018-11-04T09:36:12.123Z,1013.26
2018-11-04T09:37:11.952Z,1013.28
2018-11-04T09:38:11.941Z,1013.25
2018-11-04T09:39:11.935Z,1013.25
2018-11-04T09:40:11.924Z,1013.27
2018-11-04T09:41:11.913Z,1013.28
2018-11-04T09:42:11.890Z,1013.28
2018-11-04T09:43:11.880Z,1013.25
2018-11-04T09:44:11.871Z,1013.24
2018-11-04T09:45:11.873Z,1013.27
2018-11-04T09:46:11.845Z,1013.25
2018-11-04T09:47:11.835Z,1013.27
2018-11-04T09:48:11.834Z,1013.29
2018-11-04T09:49:11.814Z,1013.27
2018-11-04T09:50:11.829Z,1013.26
2018-11-04T09:51:11.794Z,1013.26
2018-11-04T09:52:11.800Z,1013.25
2018-11-04T09:53:11.771Z,1013.20
2018-11-04T09:54:11.766Z,1013.21
2018-11-04T09:55:11.751Z,1013.21
2018-11-04T09:56:11.748Z,1013.19
2018-11-04T09:57:11.726Z,1013.18
2018-11-04T09:58:11.722Z,1013.18
2018-11-04T09:59:11.707Z,1013.15
2018-11-04T10:00:11.698Z,1013.14
2018-11-04T10:01:11.705Z,1013.09
2018-11-04T10:02:11.687Z,1013.09
2018-11-04T10:03:11.665Z,1013.09
2018-11-04T10:04:11.656Z,1013.10
2018-11-04T10:05:11.645Z,1013.07
2018-11-04T10:06:11.645Z,1013.03
2018-11-04T10:07:11.727Z,1013.09
2018-11-04T10:08:11.615Z,1013.07
2018-11-04T10:09:11.602Z,1013.07
2018-11-04T10:10:11.590Z,1013.11
2018-11-04T10:11:11.590Z,1013.08
2018-11-04T10:12:11.584Z,1013.11
2018-11-04T10:13:11.598Z,1013.08
2018-11-04T10:14:11.547Z,1013.08
2018-11-04T10:15:11.539Z,1013.12
2018-11-04T10:16:11.556Z,1013.09
2018-11-04T10:17:11.531Z,1013.10
2018-11-04T10:18:11.520Z,1013.10
2018-11-04T10:19:11.707Z,1013.12
2018-11-04T10:20:11.625Z,1013.08
2018-11-04T10:21:11.854Z,1013.07
2018-11-04T10:22:11.461Z,1013.00
2018-11-04T10:23:11.467Z,1012.98
2018-11-04T10:24:11.443Z,1012.94
2018-11-04T10:25:11.432Z,1012.94
2018-11-04T10:26:11.420Z,1012.93
2018-11-04T10:27:11.408Z,1012.89
2018-11-04T10:28:11.420Z,1012.88
2018-11-04T10:29:11.385Z,1012.91
2018-11-04T10:30:11.411Z,1012.89
2018-11-04T10:31:11.369Z,1012.89
2018-11-04T10:32:11.357Z,1012.90
2018-11-04T10:33:11.357Z,1012.86
2018-11-04T10:34:11.333Z,1012.88
2018-11-04T10:35:11.324Z,1012.81
2018-11-04T10:36:11.346Z,1012.80
2018-11-04T10:37:11.392Z,1012.76
2018-11-04T10:38:11.304Z,1012.81
2018-11-04T10:39:11.282Z,1012.81
2018-11-04T10:40:11.270Z,1012.79
2018-11-04T10:41:11.268Z,1012.81
2018-11-04T10:42:11.272Z,1012.77
2018-11-04T10:43:11.277Z,1012.80
2018-11-04T10:44:11.226Z,1012.82
2018-11-04T10:45:11.253Z,1012.80
2018-11-04T10:46:11.206Z,1012.80
2018-11-04T10:47:11.198Z,1012.74
2018-11-04T10:48:11.187Z,1012.74
2018-11-04T10:49:11.234Z,1012.72
2018-11-04T10:50:11.199Z,1012.75
2018-11-04T10:51:11.154Z,1012.69
2018-11-04T10:52:11.170Z,1012.69
2018-11-04T10:53:11.132Z,1012.65
2018-11-04T10:54:11.135Z,1012.61
2018-11-04T10:55:11.116Z,1012.57
2018-11-04T10:56:11.100Z,1012.58
2018-11-04T10:57:11.094Z,1012.60
2018-11-04T10:58:11.078Z,1012.58
2018-11-04T10:59:11.082Z,1012.59
2018-11-04T11:00:11.058Z,1012.54
2018-11-04T11:01:11.047Z,1012.54
2018-11-04T11:02:11.040Z,1012.50
2018-11-04T11:03:11.027Z,1012.47
2018-11-04T11:04:11.032Z,1012.47
2018-11-04T11:05:11.029Z,1012.47
2018-11-04T11:06:10.996Z,1012.43
2018-11-04T11:07:10.982Z,1012.39
2018-11-04T11:08:10.973Z,1012.35
2018-11-04T11:09:10.962Z,1012.31
2018-11-04T11:10:10.950Z,1012.31
2018-11-04T11:11:11.036Z,1012.31
2018-11-04T11:12:10.933Z,1012.28
2018-11-04T11:13:10.919Z,1012.28
2018-11-04T11:14:10.917Z,1012.22
2018-11-04T11:15:10.911Z,1012.22
2018-11-04T11:16:10.888Z,1012.23
2018-11-04T11:17:10.879Z,1012.22
2018-11-04T11:18:10.864Z,1012.21
2018-11-04T11:19:10.856Z,1012.19
2018-11-04T11:20:10.856Z,1012.23
2018-11-04T11:21:10.844Z,1012.18
2018-11-04T11:22:10.829Z,1012.16
2018-11-04T11:23:10.855Z,1012.13
2018-11-04T11:24:10.802Z,1012.11
2018-11-04T11:25:10.793Z,1012.11
2018-11-04T11:26:10.792Z,1012.08
2018-11-04T11:27:10.769Z,1012.07
2018-11-04T11:28:10.761Z,1012.03
2018-11-04T11:29:10.747Z,1011.97
2018-11-04T11:30:10.793Z,1011.94
2018-11-04T11:31:11.029Z,1011.91
2018-11-04T11:32:10.730Z,1011.91
2018-11-04T11:33:10.707Z,1011.88
2018-11-04T11:34:10.693Z,1011.86
2018-11-04T11:35:10.683Z,1011.88
2018-11-04T11:36:10.694Z,1011.87
2018-11-04T11:37:10.678Z,1011.86
2018-11-04T11:38:10.657Z,1011.84
2018-11-04T11:39:10.646Z,1011.86
2018-11-04T11:40:10.633Z,1011.82
2018-11-04T11:41:10.620Z,1011.85
2018-11-04T11:42:10.622Z,1011.83
2018-11-04T11:43:10.597Z,1011.83
2018-11-04T11:44:10.586Z,1011.81
2018-11-04T11:45:10.575Z,1011.77
2018-11-04T11:46:10.564Z,1011.73
2018-11-04T11:47:10.578Z,1011.71
2018-11-04T11:48:10.544Z,1011.73
2018-11-04T11:49:10.533Z,1011.67
2018-11-04T11:50:10.524Z,1011.68
2018-11-04T11:51:10.512Z,1011.70
2018-11-04T11:52:10.511Z,1011.65
2018-11-04T11:53:10.490Z,1011.62
2018-11-04T11:54:10.478Z,1011.61
2018-11-04T11:55:10.468Z,1011.58
2018-11-04T11:56:10.460Z,1011.50
2018-11-04T11:57:10.478Z,1011.53
2018-11-04T11:58:10.437Z,1011.57
2018-11-04T11:59:10.443Z,1011.56
2018-11-04T12:00:10.413Z,1011.56
2018-11-04T12:01:10.405Z,1011.56
2018-11-04T12:02:10.475Z,1011.47
2018-11-04T12:03:10.387Z,1011.50
2018-11-04T12:04:10.373Z,1011.51
2018-11-04T12:05:10.363Z,1011.53